Time;durP1;ratioP1;P1;durP2;ratioP2;P2;SDS_P1;SDS_P2;PMS_P1;PMS_P2;Temp;Humidity;BMP_temperature;BMP_pressure;BME280_temperature;BME280_humidity;BME280_pressure;Samples;Min_cycle;Max_cycle;Signal;HPM_P1;HPM_P2
2022/09/22 00:01:30;;;;;;;4.88;2.58;;;7.20;99.90;;;;;;4974106;28;20026;-76
2022/09/22 00:04:11;;;;;;;6.35;2.70;;;7.20;99.90;;;;;;4975970;28;20027;-75
2022/09/22 00:06:50;;;;;;;3.95;2.63;;;7.20;99.90;;;;;;4990690;28;20488;-74
2022/09/22 00:09:20;;;;;;;5.45;2.53;;;7.20;99.90;;;;;;4969892;28;20097;-74
2022/09/22 00:11:48;;;;;;;5.30;3.05;;;7.10;99.90;;;;;;4974379;28;20030;-74
2022/09/22 00:14:23;;;;;;;4.18;2.50;;;7.10;99.90;;;;;;4974647;28;20037;-74
2022/09/22 00:16:52;;;;;;;4.40;2.50;;;7.10;99.90;;;;;;4971119;28;20030;-75
2022/09/22 00:19:29;;;;;;;4.75;2.50;;;7.10;99.90;;;;;;4988798;28;20038;-75
2022/09/22 00:21:55;;;;;;;4.18;1.83;;;7.10;99.90;;;;;;4970722;28;20041;-75
2022/09/22 00:24:22;;;;;;;4.80;2.53;;;7.00;99.90;;;;;;4971620;28;20065;-75
2022/09/22 00:26:56;;;;;;;4.18;2.28;;;7.00;99.90;;;;;;4968419;28;20041;-75
2022/09/22 00:29:22;;;;;;;;;;;7.00;99.90;;;;;;4973878;28;20510;-75
2022/09/22 00:31:47;;;;;;;4.45;2.25;;;7.00;99.90;;;;;;4988455;28;19910;-76
2022/09/22 00:34:31;;;;;;;4.18;2.72;;;6.90;99.90;;;;;;4967875;28;20547;-76
2022/09/22 00:36:57;;;;;;;3.45;1.83;;;6.90;99.90;;;;;;4997736;28;20031;-74
2022/09/22 00:39:22;;;;;;;5.13;2.20;;;6.90;99.90;;;;;;4974048;28;20628;-74
2022/09/22 00:41:51;;;;;;;3.97;2.35;;;6.90;99.90;;;;;;4971680;28;20499;-75
2022/09/22 00:44:25;;;;;;;4.40;2.03;;;6.90;99.90;;;;;;4973658;28;20116;-75
2022/09/22 00:47:03;;;;;;;3.17;2.17;;;6.80;99.90;;;;;;4969789;28;20022;-75
2022/09/22 00:49:40;;;;;;;4.03;2.42;;;6.70;99.90;;;;;;4975287;28;20459;-75
2022/09/22 00:52:07;;;;;;;6.80;4.00;;;6.70;99.90;;;;;;4973595;28;20027;-75
2022/09/22 00:54:50;;;;;;;4.97;2.53;;;6.70;99.90;;;;;;4957357;28;20121;-75
2022/09/22 00:57:25;;;;;;;2.78;2.00;;;6.60;99.90;;;;;;4974452;28;20031;-76
2022/09/22 00:59:58;;;;;;;5.10;2.38;;;6.60;99.90;;;;;;4971892;28;20089;-76
2022/09/22 01:02:33;;;;;;;6.72;2.67;;;6.50;99.90;;;;;;4968736;28;20546;-75
2022/09/22 01:04:59;;;;;;;7.63;2.40;;;6.50;99.90;;;;;;4968158;28;20031;-76
2022/09/22 01:07:28;;;;;;;5.75;1.92;;;6.50;99.90;;;;;;4987822;28;20030;-76
2022/09/22 01:09:54;;;;;;;5.10;2.33;;;6.50;99.90;;;;;;4969579;28;20537;-76
2022/09/22 01:12:22;;;;;;;3.42;1.85;;;6.50;99.90;;;;;;4970041;28;20041;-75
2022/09/22 01:15:19;;;;;;;5.47;2.30;;;6.50;99.90;;;;;;4974977;28;20026;-75
2022/09/22 01:18:18;;;;;;;4.18;2.83;;;6.40;99.90;;;;;;4970049;28;20018;-75
2022/09/22 01:21:04;;;;;;;3.47;2.08;;;6.40;99.90;;;;;;4974676;28;20025;-75
2022/09/22 01:23:42;;;;;;;4.70;2.55;;;6.40;99.90;;;;;;4972253;28;20043;-74
2022/09/22 01:26:28;;;;;;;6.60;2.22;;;6.40;99.90;;;;;;4969535;28;20439;-74
2022/09/22 01:29:06;;;;;;;7.32;2.65;;;6.30;99.90;;;;;;4972042;28;20026;-75
2022/09/22 01:31:49;;;;;;;5.93;2.50;;;6.30;99.90;;;;;;4985706;28;20038;-75
2022/09/22 01:34:56;;;;;;;5.05;2.80;;;6.30;99.90;;;;;;4987727;28;20117;-75
2022/09/22 01:37:55;;;;;;;4.38;2.58;;;6.30;99.90;;;;;;4974521;28;20519;-75
2022/09/22 01:40:29;;;;;;;4.40;2.55;;;6.20;99.90;;;;;;4987610;28;20049;-75
2022/09/22 01:43:05;;;;;;;5.82;2.40;;;6.20;99.90;;;;;;4968016;28;20030;-75
2022/09/22 01:45:34;;;;;;;3.97;2.72;;;6.20;99.90;;;;;;4973412;28;20118;-75
2022/09/22 01:48:29;;;;;;;8.20;2.78;;;6.20;99.90;;;;;;4972634;28;20026;-76
2022/09/22 01:51:11;;;;;;;4.47;2.85;;;6.20;99.90;;;;;;4969748;28;20373;-75
2022/09/22 01:53:43;;;;;;;5.22;2.78;;;6.20;99.90;;;;;;4969236;28;20027;-75
2022/09/22 01:56:14;;;;;;;9.45;3.53;;;6.10;99.90;;;;;;4967976;28;20527;-75
2022/09/22 01:58:50;;;;;;;4.90;3.13;;;6.10;99.90;;;;;;4969989;28;20134;-75
2022/09/22 02:01:21;;;;;;;5.88;2.90;;;6.10;99.90;;;;;;4974779;28;20027;-74
2022/09/22 02:03:55;;;;;;;7.60;3.13;;;6.10;99.90;;;;;;4968260;28;20031;-74
2022/09/22 02:06:46;;;;;;;4.75;2.55;;;6.10;99.90;;;;;;4969833;28;20027;-74
2022/09/22 02:09:17;;;;;;;5.28;3.40;;;6.10;99.90;;;;;;4965929;28;20046;-75
2022/09/22 02:11:43;;;;;;;5.68;3.10;;;6.10;99.90;;;;;;4966276;28;20027;-75
2022/09/22 02:14:15;;;;;;;6.97;3.22;;;6.10;99.90;;;;;;4969675;28;20036;-76
2022/09/22 02:16:41;;;;;;;3.72;2.15;;;6.00;99.90;;;;;;4975190;28;20034;-75
2022/09/22 02:19:39;;;;;;;3.78;2.05;;;6.00;99.90;;;;;;4974617;28;20023;-75
2022/09/22 02:22:07;;;;;;;5.13;2.50;;;6.00;99.90;;;;;;4969450;28;20035;-75
2022/09/22 02:24:48;;;;;;;6.38;2.80;;;5.90;99.90;;;;;;4975937;28;20392;-75
2022/09/22 02:27:26;;;;;;;3.22;2.10;;;5.90;99.90;;;;;;4968302;28;20105;-76
2022/09/22 02:30:00;;;;;;;6.00;2.60;;;5.90;99.90;;;;;;4971428;28;20073;-76
2022/09/22 02:32:27;;;;;;;5.55;2.67;;;5.90;99.90;;;;;;4969514;28;20054;-75
2022/09/22 02:34:54;;;;;;;4.72;2.50;;;5.90;99.90;;;;;;4972195;28;20463;-77
2022/09/22 02:37:46;;;;;;;5.10;2.50;;;5.80;99.90;;;;;;4979301;28;20046;-76
2022/09/22 02:40:26;;;;;;;4.28;2.90;;;5.80;99.90;;;;;;4978887;28;20101;-76
2022/09/22 02:43:20;;;;;;;4.50;2.30;;;5.70;99.90;;;;;;4973604;28;20079;-76
2022/09/22 02:45:54;;;;;;;3.28;2.50;;;5.70;99.90;;;;;;4979019;28;20058;-75
2022/09/22 02:48:39;;;;;;;3.15;2.08;;;5.70;99.90;;;;;;4981032;28;20019;-76
2022/09/22 02:51:06;;;;;;;3.17;1.83;;;5.70;99.90;;;;;;4979731;28;20113;-76
2022/09/22 02:53:40;;;;;;;3.20;2.00;;;5.70;99.90;;;;;;4979254;28;21170;-76
2022/09/22 02:56:18;;;;;;;5.00;2.00;;;5.70;99.90;;;;;;4970387;28;20047;-75
2022/09/22 02:58:47;;;;;;;3.53;2.00;;;5.70;99.90;;;;;;4971003;28;20161;-75
2022/09/22 03:01:12;;;;;;;3.72;2.20;;;5.60;99.90;;;;;;4989442;28;20031;-76
2022/09/22 03:03:38;;;;;;;3.40;2.00;;;5.60;99.90;;;;;;4976650;28;20413;-76
2022/09/22 03:06:04;;;;;;;4.50;2.13;;;5.50;99.90;;;;;;4983855;28;20034;-75
2022/09/22 03:08:32;;;;;;;6.03;2.42;;;5.50;99.90;;;;;;4972997;28;20026;-76
2022/09/22 03:11:10;;;;;;;4.63;2.22;;;5.50;99.90;;;;;;4975966;28;20448;-76
2022/09/22 03:13:35;;;;;;;4.15;2.40;;;5.50;99.90;;;;;;4974430;28;20066;-75
2022/09/22 03:16:04;;;;;;;3.30;2.22;;;5.50;99.90;;;;;;4979407;28;20436;-76
2022/09/22 03:18:29;;;;;;;5.18;2.70;;;5.50;99.90;;;;;;4981710;28;20411;-75
2022/09/22 03:20:58;;;;;;;6.50;3.00;;;5.50;99.90;;;;;;4969446;28;20031;-75
2022/09/22 03:23:23;;;;;;;6.00;2.70;;;5.50;99.90;;;;;;4979895;23;20038;-76
2022/09/22 03:25:49;;;;;;;4.22;2.38;;;5.50;99.90;;;;;;5016569;28;20041;-75
2022/09/22 03:28:15;;;;;;;4.20;2.35;;;5.50;99.90;;;;;;5004911;28;20479;-76
2022/09/22 03:30:40;;;;;;;4.93;2.97;;;5.50;99.90;;;;;;5000548;28;20014;-75
2022/09/22 03:33:06;;;;;;;6.60;2.88;;;5.50;99.90;;;;;;4987870;28;20089;-75
2022/09/22 03:35:31;;;;;;;4.47;2.90;;;5.50;99.90;;;;;;4992724;28;20034;-75
2022/09/22 03:37:57;;;;;;;5.60;2.63;;;5.40;99.90;;;;;;5001500;23;20046;-75
2022/09/22 03:40:23;;;;;;;7.85;3.08;;;5.50;99.90;;;;;;4991230;28;20058;-74
2022/09/22 03:42:48;;;;;;;3.83;1.92;;;5.40;99.90;;;;;;4993311;28;20041;-75
2022/09/22 03:45:23;;;;;;;4.80;2.65;;;5.50;99.90;;;;;;4978360;28;20043;-75
2022/09/22 03:47:58;;;;;;;7.60;2.75;;;5.40;99.90;;;;;;4967203;28;20018;-75
2022/09/22 03:50:24;;;;;;;5.22;2.53;;;5.40;99.90;;;;;;5021432;23;20466;-75
2022/09/22 03:52:50;;;;;;;6.03;2.78;;;5.40;99.90;;;;;;4985349;28;20110;-76
2022/09/22 03:55:16;;;;;;;4.97;2.90;;;5.40;99.90;;;;;;4991402;28;20121;-76
2022/09/22 03:57:44;;;;;;;6.80;2.70;;;5.50;99.90;;;;;;4991649;28;20114;-76
2022/09/22 04:00:16;;;;;;;3.67;2.22;;;5.50;99.90;;;;;;4987204;28;20030;-76
2022/09/22 04:02:42;;;;;;;4.65;2.30;;;5.50;99.90;;;;;;4974177;28;20031;-76
2022/09/22 04:05:11;;;;;;;5.50;2.85;;;5.40;99.90;;;;;;4979485;28;20384;-76
2022/09/22 04:07:37;;;;;;;5.75;2.53;;;5.40;99.90;;;;;;4991128;28;20102;-75
2022/09/22 04:10:04;;;;;;;6.45;2.60;;;5.40;99.90;;;;;;4967108;28;20129;-76
2022/09/22 04:12:29;;;;;;;6.43;2.17;;;5.40;99.90;;;;;;4975854;28;20460;-76
2022/09/22 04:14:58;;;;;;;5.60;2.42;;;5.40;99.90;;;;;;4978466;28;20050;-75
2022/09/22 04:17:23;;;;;;;3.67;2.28;;;5.40;99.90;;;;;;4969969;28;20023;-76
2022/09/22 04:19:56;;;;;;;5.00;2.22;;;5.40;99.90;;;;;;4975008;28;20443;-76
2022/09/22 04:22:24;;;;;;;5.85;2.38;;;5.40;99.90;;;;;;4973959;28;20026;-76
2022/09/22 04:24:53;;;;;;;6.88;2.60;;;5.30;99.90;;;;;;4976771;28;20053;-75
2022/09/22 04:27:27;;;;;;;5.50;2.40;;;5.30;99.90;;;;;;4974048;28;20027;-76
2022/09/22 04:29:53;;;;;;;7.47;3.05;;;5.30;99.90;;;;;;4986244;28;20054;-74
2022/09/22 04:32:22;;;;;;;7.22;2.95;;;5.30;99.90;;;;;;4970652;28;20483;-76
2022/09/22 04:34:50;;;;;;;4.30;2.90;;;5.20;99.90;;;;;;4973199;28;20732;-75
2022/09/22 04:37:18;;;;;;;6.32;3.65;;;5.20;99.90;;;;;;4975401;28;20031;-75
2022/09/22 04:39:44;;;;;;;6.22;3.03;;;5.20;99.90;;;;;;4986582;28;20519;-76
2022/09/22 04:42:10;;;;;;;5.18;2.83;;;5.20;99.90;;;;;;4980394;28;20034;-75
2022/09/22 04:44:38;;;;;;;3.50;2.38;;;5.20;99.90;;;;;;4969392;28;20042;-75
2022/09/22 04:47:09;;;;;;;7.05;3.13;;;5.10;99.90;;;;;;4975002;28;20085;-76
2022/09/22 04:49:35;;;;;;;9.35;3.67;;;5.10;99.90;;;;;;4972086;28;20034;-76
2022/09/22 04:52:01;;;;;;;7.18;3.75;;;5.10;99.90;;;;;;4968919;28;20046;-76
2022/09/22 04:54:26;;;;;;;8.82;3.58;;;5.10;99.90;;;;;;4968519;28;20077;-76
2022/09/22 04:56:52;;;;;;;7.07;4.20;;;5.10;99.90;;;;;;4975862;28;20397;-77
2022/09/22 04:59:17;;;;;;;8.32;4.03;;;5.10;99.90;;;;;;4969741;28;20388;-77
2022/09/22 05:01:43;;;;;;;6.30;4.10;;;5.10;99.90;;;;;;4971936;28;20361;-77
2022/09/22 05:04:09;;;;;;;9.55;4.65;;;5.20;99.90;;;;;;4975323;28;20042;-77
2022/09/22 05:06:38;;;;;;;11.23;4.93;;;5.10;99.90;;;;;;4987073;28;20030;-76
2022/09/22 05:09:10;;;;;;;6.72;4.32;;;5.10;99.90;;;;;;4973040;28;20352;-76
2022/09/22 05:11:44;;;;;;;7.05;4.28;;;5.10;99.90;;;;;;4974405;28;20033;-76
2022/09/22 05:14:11;;;;;;;7.40;4.35;;;5.10;99.90;;;;;;4974577;28;20027;-77
2022/09/22 05:16:37;;;;;;;13.82;6.20;;;5.10;99.90;;;;;;4977152;28;20022;-77
2022/09/22 05:19:05;;;;;;;7.95;4.70;;;5.10;99.90;;;;;;4990454;28;20489;-76
2022/09/22 05:21:35;;;;;;;14.48;5.22;;;5.10;99.90;;;;;;4970936;28;20038;-76
2022/09/22 05:24:01;;;;;;;7.85;5.18;;;5.00;99.90;;;;;;4992342;28;20439;-76
2022/09/22 05:26:27;;;;;;;11.35;5.85;;;5.00;99.90;;;;;;4974694;28;20038;-76
2022/09/22 05:28:53;;;;;;;8.68;5.18;;;5.00;99.90;;;;;;4970488;28;20484;-77
2022/09/22 05:31:18;;;;;;;9.55;4.70;;;5.00;99.90;;;;;;4969793;28;20037;-76
2022/09/22 05:33:44;;;;;;;8.02;5.00;;;5.00;99.90;;;;;;4972755;28;20034;-77
2022/09/22 05:36:13;;;;;;;9.70;4.95;;;5.00;99.90;;;;;;4972593;28;20031;-78
2022/09/22 05:38:42;;;;;;;6.97;4.47;;;5.00;99.90;;;;;;4974098;28;20023;-77
2022/09/22 05:41:13;;;;;;;7.72;4.20;;;5.00;99.90;;;;;;4989606;28;20037;-77
2022/09/22 05:43:42;;;;;;;7.75;4.47;;;5.00;99.90;;;;;;4993227;28;20049;-76
2022/09/22 05:46:10;;;;;;;9.25;5.40;;;5.10;99.90;;;;;;4973153;28;20053;-76
2022/09/22 05:48:36;;;;;;;6.78;4.45;;;5.10;99.90;;;;;;4970918;28;20030;-77
2022/09/22 05:51:04;;;;;;;10.25;5.07;;;5.10;99.90;;;;;;4975259;28;20392;-76
2022/09/22 05:53:30;;;;;;;9.80;5.05;;;5.10;99.90;;;;;;4975470;28;20031;-77
2022/09/22 05:56:08;;;;;;;8.75;5.30;;;5.20;99.90;;;;;;4975879;28;20036;-77
2022/09/22 05:58:36;;;;;;;10.02;5.10;;;5.20;99.90;;;;;;4974512;28;20034;-77
2022/09/22 06:01:03;;;;;;;12.65;5.57;;;5.30;99.90;;;;;;4968703;28;20042;-76
2022/09/22 06:03:29;;;;;;;11.25;5.85;;;5.30;99.90;;;;;;4977297;28;20027;-77
2022/09/22 06:05:54;;;;;;;9.45;5.18;;;5.40;99.90;;;;;;4989964;28;20026;-77
2022/09/22 06:08:20;;;;;;;8.68;5.93;;;5.40;99.90;;;;;;4970048;28;20066;-76
2022/09/22 06:10:47;;;;;;;11.05;6.20;;;5.40;99.90;;;;;;4972173;28;20037;-77
2022/09/22 06:13:13;;;;;;;11.90;6.25;;;5.50;99.90;;;;;;4982401;28;20131;-77
2022/09/22 06:15:42;;;;;;;12.65;5.60;;;5.50;99.90;;;;;;4987215;28;20094;-77
2022/09/22 06:18:10;;;;;;;11.27;7.60;;;5.60;99.90;;;;;;4972184;28;20041;-76
2022/09/22 06:20:39;;;;;;;9.48;6.45;;;5.70;99.90;;;;;;4975054;28;20035;-74
2022/09/22 06:23:17;;;;;;;8.88;5.80;;;5.70;99.90;;;;;;4981989;28;20035;-76
2022/09/22 06:25:43;;;;;;;12.38;6.20;;;5.90;99.90;;;;;;4977824;28;20038;-77
2022/09/22 06:28:15;;;;;;;9.43;6.03;;;5.90;99.90;;;;;;4978238;28;20039;-75
2022/09/22 06:30:44;;;;;;;9.32;6.05;;;5.90;99.90;;;;;;4974869;28;20053;-72
2022/09/22 06:33:13;;;;;;;17.20;6.78;;;6.00;99.90;;;;;;4970409;28;20488;-71
2022/09/22 06:35:41;;;;;;;12.35;6.70;;;6.00;99.90;;;;;;4971681;28;20086;-73
2022/09/22 06:38:14;;;;;;;12.63;6.63;;;6.10;99.90;;;;;;4970984;28;20054;-70
2022/09/22 06:40:43;;;;;;;10.18;6.45;;;6.10;99.90;;;;;;4969609;28;20029;-71
2022/09/22 06:43:27;;;;;;;13.38;6.78;;;6.20;99.90;;;;;;4970912;28;20046;-71
2022/09/22 06:45:58;;;;;;;12.30;6.60;;;6.30;99.90;;;;;;4966111;28;20027;-71
2022/09/22 06:48:27;;;;;;;12.80;6.78;;;6.30;99.90;;;;;;4969080;28;20027;-70
2022/09/22 06:50:53;;;;;;;15.32;6.07;;;6.40;99.90;;;;;;4970130;28;20173;-71
2022/09/22 06:53:23;;;;;;;9.00;5.85;;;6.50;99.90;;;;;;4968451;28;20031;-71
2022/09/22 06:56:04;;;;;;;14.40;6.07;;;6.60;99.90;;;;;;4966375;28;20134;-72
2022/09/22 06:58:31;;;;;;;9.98;6.25;;;6.60;99.90;;;;;;4972232;28;20086;-75
2022/09/22 07:01:05;;;;;;;9.95;5.72;;;6.70;99.90;;;;;;4963177;28;20035;-75
2022/09/22 07:03:37;;;;;;;;;;;6.80;99.90;;;;;;4966684;28;20027;-76
2022/09/22 07:06:05;;;;;;;14.48;7.07;;;6.90;99.90;;;;;;4972588;28;20005;-75
2022/09/22 07:08:33;;;;;;;14.00;7.95;;;7.00;99.90;;;;;;4986911;28;20023;-75
2022/09/22 07:11:03;;;;;;;16.48;6.28;;;7.00;99.90;;;;;;4987096;28;20023;-76
2022/09/22 07:13:31;;;;;;;14.10;7.00;;;7.10;99.90;;;;;;4969929;28;20019;-77
2022/09/22 07:16:01;;;;;;;17.27;8.10;;;7.20;99.90;;;;;;4974030;28;20089;-78
2022/09/22 07:18:41;;;;;;;13.10;6.95;;;7.20;99.90;;;;;;4978906;28;20027;-78
2022/09/22 07:21:10;;;;;;;12.55;6.30;;;7.30;99.90;;;;;;4978883;28;20515;-74
2022/09/22 07:23:36;;;;;;;13.10;6.78;;;7.30;99.90;;;;;;4977300;28;20177;-76
2022/09/22 07:26:22;;;;;;;17.50;7.13;;;7.40;99.90;;;;;;4989143;28;20033;-77
2022/09/22 07:28:52;;;;;;;13.65;6.60;;;7.40;99.90;;;;;;4975122;28;20381;-78
2022/09/22 07:31:26;;;;;;;14.45;6.60;;;7.50;99.90;;;;;;4972848;28;20031;-76
2022/09/22 07:34:00;;;;;;;18.70;8.20;;;7.60;99.90;;;;;;4982087;28;20027;-77
2022/09/22 07:36:31;;;;;;;20.00;7.63;;;7.60;99.90;;;;;;4979708;28;20499;-78
2022/09/22 07:39:02;;;;;;;20.60;6.45;;;7.70;99.90;;;;;;4977581;28;20033;-77
2022/09/22 07:41:41;;;;;;;13.93;6.85;;;7.80;99.90;;;;;;4980637;28;20523;-77
2022/09/22 07:46:56;;;;;;;12.77;6.40;;;7.90;99.90;;;;;;4973187;28;20054;-75
2022/09/22 07:49:22;;;;;;;33.95;14.50;;;8.10;99.90;;;;;;4973758;28;20030;-78
2022/09/22 07:51:56;;;;;;;18.05;9.02;;;8.10;99.90;;;;;;4976590;28;20031;-77
2022/09/22 07:54:22;;;;;;;17.30;8.10;;;8.20;99.90;;;;;;4978339;28;20118;-78
2022/09/22 07:56:50;;;;;;;12.57;6.53;;;8.30;99.90;;;;;;4979605;28;20031;-77
2022/09/22 07:59:34;;;;;;;10.52;6.72;;;8.30;99.90;;;;;;4977569;28;20023;-76
2022/09/22 08:02:00;;;;;;;14.25;6.20;;;8.40;99.90;;;;;;4974173;28;20105;-78
2022/09/22 08:04:29;;;;;;;14.57;6.80;;;8.50;99.90;;;;;;4973706;28;20902;-78
2022/09/22 08:06:55;;;;;;;14.65;7.20;;;8.60;99.90;;;;;;4974493;28;20118;-77
2022/09/22 08:09:24;;;;;;;9.20;6.22;;;8.70;99.90;;;;;;4971682;28;20759;-76
2022/09/22 08:11:51;;;;;;;10.32;6.03;;;8.80;99.90;;;;;;4976816;28;20023;-76
2022/09/22 08:14:17;;;;;;;10.65;5.80;;;8.90;99.90;;;;;;4971892;28;20732;-76
2022/09/22 08:16:44;;;;;;;12.80;6.72;;;9.00;99.90;;;;;;4978624;28;20019;-75
2022/09/22 08:19:11;;;;;;;11.63;6.55;;;9.00;99.90;;;;;;4973496;28;20097;-74
2022/09/22 08:21:39;;;;;;;7.82;5.20;;;9.10;99.90;;;;;;4971881;28;20408;-75
2022/09/22 08:24:07;;;;;;;13.00;5.15;;;9.20;99.90;;;;;;4964908;28;20030;-75
2022/09/22 08:26:35;;;;;;;6.93;5.13;;;9.30;99.90;;;;;;4961573;28;20027;-76
2022/09/22 08:29:05;;;;;;;7.38;4.88;;;9.40;99.90;;;;;;4967364;28;20022;-75
2022/09/22 08:31:31;;;;;;;6.72;4.15;;;9.50;99.90;;;;;;4966920;28;20107;-74
2022/09/22 08:33:57;;;;;;;6.63;4.80;;;9.60;99.90;;;;;;4972920;28;20034;-75
2022/09/22 08:36:26;;;;;;;6.07;4.15;;;9.60;99.90;;;;;;4972186;28;20093;-76
2022/09/22 08:38:57;;;;;;;7.22;4.10;;;9.80;99.90;;;;;;4970913;28;20032;-77
2022/09/22 08:41:41;;;;;;;7.90;4.38;;;9.80;99.90;;;;;;4969077;28;20105;-76
2022/09/22 08:44:09;;;;;;;9.32;4.82;;;9.90;99.90;;;;;;4972942;28;20464;-76
2022/09/22 08:46:44;;;;;;;8.63;4.57;;;10.00;99.90;;;;;;4987344;28;20054;-76
2022/09/22 08:52:21;;;;;;;11.93;4.82;;;10.10;99.90;;;;;;4977010;28;20049;-77
2022/09/22 08:54:50;;;;;;;8.50;4.47;;;10.20;99.90;;;;;;4969743;28;20023;-76
2022/09/22 08:57:34;;;;;;;7.53;4.38;;;10.30;99.90;;;;;;4975585;28;20038;-76
2022/09/22 09:00:05;;;;;;;;;;;10.40;99.90;;;;;;4973946;28;20027;-75
2022/09/22 09:02:58;;;;;;;6.93;4.03;;;10.50;99.90;;;;;;4988544;28;20107;-77
2022/09/22 09:05:49;;;;;;;7.72;4.53;;;10.60;99.90;;;;;;4973813;28;20058;-78
2022/09/22 09:08:46;;;;;;;6.97;4.78;;;10.70;99.90;;;;;;4975595;28;20045;-77
2022/09/22 09:11:40;;;;;;;15.65;4.70;;;10.80;99.90;;;;;;4996414;28;20041;-78
2022/09/22 09:14:24;;;;;;;7.97;4.57;;;10.90;99.90;;;;;;4999783;28;20026;-78
2022/09/22 09:17:29;;;;;;;;;;;11.00;99.90;;;;;;4980066;28;20369;-77
2022/09/22 09:20:02;;;;;;;5.35;3.83;;;11.00;99.90;;;;;;4950502;28;19918;-77
2022/09/22 09:22:34;;;;;;;6.50;4.22;;;11.20;99.90;;;;;;4956391;28;20031;-77
2022/09/22 09:25:29;;;;;;;18.77;9.27;;;11.30;99.90;;;;;;4963751;28;20034;-77
2022/09/22 09:28:03;;;;;;;7.45;4.03;;;11.40;99.90;;;;;;4972909;28;20117;-77
2022/09/22 09:30:40;;;;;;;7.05;3.78;;;11.50;99.90;;;;;;4974577;28;20074;-77
2022/09/22 09:33:17;;;;;;;5.35;3.17;;;11.60;99.90;;;;;;4977320;28;20534;-77
2022/09/22 09:35:52;;;;;;;8.93;3.63;;;11.70;99.90;;;;;;4976718;28;20033;-77
2022/09/22 09:38:36;;;;;;;5.53;3.03;;;11.90;99.90;;;;;;4977529;28;20068;-77
2022/09/22 09:41:13;;;;;;;;;;;12.00;99.90;;;;;;4993280;28;20503;-77
2022/09/22 09:43:44;;;;;;;3.25;2.53;;;12.10;99.90;;;;;;4988785;28;19913;-77
2022/09/22 09:46:33;;;;;;;3.28;1.10;;;12.20;99.90;;;;;;4990053;28;20055;-76
2022/09/22 09:49:13;;;;;;;2.10;0.90;;;12.40;99.90;;;;;;4979034;28;20019;-77
2022/09/22 09:51:48;;;;;;;2.40;1.00;;;12.60;99.90;;;;;;4993161;23;20042;-76
2022/09/22 09:54:17;;;;;;;3.00;0.98;;;12.80;99.90;;;;;;4991006;28;20370;-74
2022/09/22 09:57:05;;;;;;;1.98;1.02;;;13.00;98.90;;;;;;4991001;28;20438;-75
2022/09/22 10:02:20;;;;;;;2.60;1.10;;;13.40;96.30;;;;;;4971448;28;20128;-74
2022/09/22 10:04:50;;;;;;;;;;;13.50;95.20;;;;;;4962287;28;20069;-74
2022/09/22 10:07:48;;;;;;;2.10;0.80;;;13.60;95.10;;;;;;4974766;28;19925;-74
2022/09/22 10:10:39;;;;;;;1.38;0.68;;;13.70;94.60;;;;;;4966620;28;20025;-75
2022/09/22 10:13:05;;;;;;;1.20;0.80;;;13.70;94.00;;;;;;4970717;28;20031;-74
2022/09/22 10:15:36;;;;;;;1.85;0.93;;;13.80;93.50;;;;;;4970768;28;20499;-74
2022/09/22 10:18:23;;;;;;;1.98;0.80;;;13.90;92.70;;;;;;4965921;28;20033;-74
2022/09/22 10:21:22;;;;;;;2.70;0.90;;;13.90;92.30;;;;;;4968601;28;20031;-75
2022/09/22 10:23:49;;;;;;;1.00;0.60;;;14.00;91.80;;;;;;4973810;28;20043;-74
2022/09/22 10:26:32;;;;;;;0.90;0.80;;;14.10;90.80;;;;;;4974055;28;20061;-75
2022/09/22 10:29:12;;;;;;;4.57;1.00;;;14.20;91.20;;;;;;4964666;28;20071;-76
2022/09/22 10:32:01;;;;;;;2.05;0.73;;;14.20;91.10;;;;;;4968660;28;20619;-77
2022/09/22 10:34:50;;;;;;;1.10;0.70;;;14.20;91.10;;;;;;4964674;28;20026;-77
2022/09/22 10:37:23;;;;;;;0.95;0.60;;;14.30;90.90;;;;;;4961279;28;20061;-76
2022/09/22 10:39:57;;;;;;;1.80;0.77;;;14.30;90.90;;;;;;4974092;28;20037;-76
2022/09/22 10:42:36;;;;;;;1.05;0.70;;;14.30;90.40;;;;;;4983059;28;20097;-76
2022/09/22 10:45:39;;;;;;;1.40;1.02;;;14.40;89.40;;;;;;4965200;28;20073;-76
2022/09/22 10:48:43;;;;;;;2.03;0.77;;;14.40;90.30;;;;;;4970254;28;20115;-77
2022/09/22 10:51:31;;;;;;;1.50;0.82;;;14.50;89.80;;;;;;4965113;28;20535;-77
2022/09/22 10:54:25;;;;;;;1.25;0.75;;;14.50;89.80;;;;;;4975751;28;20027;-76
2022/09/22 10:56:58;;;;;;;2.97;0.65;;;14.50;87.50;;;;;;4974715;28;20022;-76
2022/09/22 10:59:27;;;;;;;2.28;0.82;;;14.60;87.50;;;;;;4976683;28;20030;-78
2022/09/22 11:02:11;;;;;;;3.03;0.80;;;14.60;87.70;;;;;;4987141;28;20174;-77
2022/09/22 11:04:55;;;;;;;1.95;1.13;;;14.60;86.70;;;;;;4978297;28;20042;-76
2022/09/22 11:14:14;;;;;;;2.78;0.70;;;14.70;86.70;;;;;;4971363;28;20042;-76
2022/09/22 11:17:10;;;;;;;2.50;1.00;;;14.80;87.50;;;;;;4972882;28;20364;-76
2022/09/22 11:19:57;;;;;;;1.20;0.80;;;14.80;86.80;;;;;;4972660;28;20029;-76
2022/09/22 11:22:47;;;;;;;1.92;1.13;;;14.80;86.50;;;;;;4985305;28;20451;-75
2022/09/22 11:25:35;;;;;;;1.00;0.60;;;14.80;85.20;;;;;;4984822;28;20039;-75
2022/09/22 11:28:03;;;;;;;1.27;0.57;;;14.90;83.30;;;;;;4977765;28;20031;-77
2022/09/22 11:30:36;;;;;;;7.05;1.05;;;15.00;83.30;;;;;;4970699;28;20504;-77
2022/09/22 11:33:05;;;;;;;0.80;0.60;;;15.00;82.90;;;;;;4968836;28;20026;-75
2022/09/22 11:35:54;;;;;;;0.85;0.55;;;15.00;82.80;;;;;;4972462;28;20543;-75
2022/09/22 11:38:25;;;;;;;1.60;0.70;;;15.10;82.10;;;;;;4975388;28;20082;-76
2022/09/22 11:41:14;;;;;;;1.75;0.60;;;15.10;82.80;;;;;;4978013;28;20053;-76
2022/09/22 11:43:58;;;;;;;0.70;0.60;;;15.10;83.60;;;;;;4979394;28;20118;-76
2022/09/22 11:47:04;;;;;;;2.33;0.93;;;15.10;82.10;;;;;;4989221;28;20048;-76
2022/09/22 11:49:53;;;;;;;1.23;0.75;;;15.20;81.50;;;;;;4975103;28;20403;-77
2022/09/22 11:52:34;;;;;;;0.82;0.60;;;15.20;81.20;;;;;;4972377;28;20034;-77
2022/09/22 11:55:18;;;;;;;2.80;0.90;;;15.20;81.70;;;;;;4980371;28;20034;-77
2022/09/22 11:58:06;;;;;;;3.00;0.80;;;15.20;82.00;;;;;;4977006;28;20058;-76
2022/09/22 12:00:58;;;;;;;1.70;0.50;;;15.20;80.60;;;;;;4991191;28;20492;-77
2022/09/22 12:03:31;;;;;;;1.20;0.70;;;15.20;81.60;;;;;;4981588;28;20031;-77
2022/09/22 12:06:07;;;;;;;1.35;0.60;;;15.20;81.40;;;;;;4970161;28;20468;-76
2022/09/22 12:09:02;;;;;;;1.33;0.50;;;15.20;79.50;;;;;;4968639;28;20114;-77
2022/09/22 12:11:34;;;;;;;3.13;0.70;;;15.30;78.60;;;;;;4973289;28;20514;-76
2022/09/22 12:14:01;;;;;;;1.30;0.63;;;15.30;79.40;;;;;;4969168;28;20089;-77
2022/09/22 12:16:40;;;;;;;2.05;0.60;;;15.40;78.50;;;;;;4979063;28;20090;-77
2022/09/22 12:19:18;;;;;;;2.03;1.00;;;15.40;78.60;;;;;;4987761;28;20085;-77
2022/09/22 12:22:06;;;;;;;0.80;0.50;;;15.40;78.80;;;;;;4973608;28;20054;-76
2022/09/22 12:24:35;;;;;;;1.45;0.80;;;15.40;77.80;;;;;;4970255;28;20031;-77
2022/09/22 12:27:31;;;;;;;2.83;0.82;;;15.40;77.80;;;;;;4963218;28;20113;-78
2022/09/22 12:30:06;;;;;;;1.27;0.70;;;15.50;76.80;;;;;;4970166;28;20057;-78
2022/09/22 12:32:41;;;;;;;1.25;0.80;;;15.50;77.20;;;;;;4987819;28;20119;-76
2022/09/22 12:35:26;;;;;;;1.52;0.80;;;15.50;77.50;;;;;;4983861;28;20166;-77
2022/09/22 12:37:53;;;;;;;1.38;0.75;;;15.50;78.00;;;;;;4967654;28;20027;-77
2022/09/22 12:40:34;;;;;;;0.70;0.68;;;15.50;77.80;;;;;;4972987;28;20042;-78
2022/09/22 12:43:03;;;;;;;0.93;0.55;;;15.50;77.20;;;;;;4977585;28;20034;-77
2022/09/22 12:45:33;;;;;;;2.00;0.73;;;15.60;76.80;;;;;;4969397;28;20090;-76
2022/09/22 12:48:09;;;;;;;1.00;0.70;;;15.60;77.50;;;;;;4964498;28;21132;-77
2022/09/22 12:50:42;;;;;;;7.00;0.80;;;15.60;77.70;;;;;;4970282;28;20038;-78
2022/09/22 12:53:20;;;;;;;0.95;0.70;;;15.60;77.50;;;;;;4986309;28;20514;-78
2022/09/22 12:55:47;;;;;;;1.40;0.77;;;15.60;77.50;;;;;;4983552;28;20432;-78
2022/09/22 12:58:22;;;;;;;1.02;0.70;;;15.50;77.70;;;;;;4969856;28;20023;-76
2022/09/22 13:01:07;;;;;;;1.33;1.00;;;15.60;75.70;;;;;;4977205;28;20035;-76
2022/09/22 13:03:36;;;;;;;0.90;0.73;;;15.70;75.70;;;;;;4967195;28;20113;-77
2022/09/22 13:06:20;;;;;;;0.70;0.50;;;15.70;75.80;;;;;;4968213;28;20047;-77
2022/09/22 13:08:52;;;;;;;2.03;0.52;;;15.80;75.20;;;;;;4985913;28;20669;-78
2022/09/22 13:11:59;;;;;;;2.53;0.80;;;15.80;75.00;;;;;;4987363;28;20050;-77
2022/09/22 13:14:56;;;;;;;2.25;0.68;;;15.80;74.40;;;;;;4975886;28;20129;-78
2022/09/22 13:17:49;;;;;;;3.78;0.70;;;15.90;74.90;;;;;;4972509;28;20027;-77
2022/09/22 13:20:32;;;;;;;0.70;0.50;;;15.90;75.70;;;;;;4953127;28;20102;-76
2022/09/22 13:23:11;;;;;;;1.40;0.98;;;16.00;75.60;;;;;;4966396;28;20033;-77
2022/09/22 13:25:39;;;;;;;1.45;0.63;;;16.00;75.30;;;;;;4968385;28;20035;-77
2022/09/22 13:28:07;;;;;;;1.83;0.90;;;16.10;74.70;;;;;;4964796;28;20042;-77
2022/09/22 13:30:34;;;;;;;1.10;0.75;;;16.10;74.30;;;;;;4970144;28;20035;-77
2022/09/22 13:33:00;;;;;;;2.20;0.80;;;16.00;74.30;;;;;;4970023;28;20037;-79
2022/09/22 13:35:37;;;;;;;2.58;1.10;;;16.00;74.70;;;;;;4975329;28;20023;-78
2022/09/22 13:38:20;;;;;;;1.45;0.68;;;16.10;75.10;;;;;;4969485;28;20654;-76
2022/09/22 13:40:48;;;;;;;1.25;0.77;;;16.10;75.00;;;;;;4969808;28;20022;-78
2022/09/22 13:43:41;;;;;;;0.50;0.40;;;16.00;75.00;;;;;;4973185;28;20141;-77
2022/09/22 13:46:35;;;;;;;0.73;0.57;;;16.00;75.10;;;;;;4969358;28;20049;-76